Odessa, Texas
Current Conditions -  °F | °C
As of 11:53 PM on Thursday 27 Nov 2014 (Local Time) from KODO Reporting Station
Clear Clear  
Wind Chill: 51°   Ceiling: Unl
Heat Index: 51°   Visibility: 10mi
Dew Point: 32°   Wind: 17mph
Humidity: 48%   Direction: 190°S
Pressure: 30.28"   Gusts: NA
Location:  31.85°N, 102.37°W
Report Text: KODO 280553Z AUTO 19015KT 10SM CLR 11/00 A3028 RMK AO2 SLP235 T01060000 10144 20094 401780000 58010
Loading
Personal Weather Stations






























Interactive Weather Map New forecast layout! Learn more

10-Day Weather Forecast

Advertisements
Track Severe Weather on mobile